sensor_id;sensor_type;location;lat;lon;timestamp;P1;durP1;ratioP1;P2;durP2;ratioP2
36747;SDS011;22716;51.556;5.080;2022-07-25T00:02:20;9.57;;;6.18;;
36747;SDS011;22716;51.556;5.080;2022-07-25T00:04:50;6.55;;;5.53;;
36747;SDS011;22716;51.556;5.080;2022-07-25T00:07:19;8.55;;;6.22;;
36747;SDS011;22716;51.556;5.080;2022-07-25T00:09:48;7.80;;;6.10;;
36747;SDS011;22716;51.556;5.080;2022-07-25T00:12:22;6.90;;;6.20;;
36747;SDS011;22716;51.556;5.080;2022-07-25T00:14:51;7.10;;;5.55;;
36747;SDS011;22716;51.556;5.080;2022-07-25T00:17:20;9.05;;;6.03;;
36747;SDS011;22716;51.556;5.080;2022-07-25T00:19:48;10.48;;;5.38;;
36747;SDS011;22716;51.556;5.080;2022-07-25T00:22:17;7.50;;;6.28;;
36747;SDS011;22716;51.556;5.080;2022-07-25T00:24:46;8.07;;;5.70;;
36747;SDS011;22716;51.556;5.080;2022-07-25T00:27:17;8.23;;;6.15;;
36747;SDS011;22716;51.556;5.080;2022-07-25T00:29:46;6.47;;;5.15;;
36747;SDS011;22716;51.556;5.080;2022-07-25T00:32:15;8.13;;;5.05;;
36747;SDS011;22716;51.556;5.080;2022-07-25T00:34:46;8.07;;;5.40;;
36747;SDS011;22716;51.556;5.080;2022-07-25T00:37:15;8.05;;;5.72;;
36747;SDS011;22716;51.556;5.080;2022-07-25T00:39:44;7.38;;;5.47;;
36747;SDS011;22716;51.556;5.080;2022-07-25T00:42:13;10.07;;;4.88;;
36747;SDS011;22716;51.556;5.080;2022-07-25T00:44:45;6.50;;;5.47;;
36747;SDS011;22716;51.556;5.080;2022-07-25T00:47:15;6.63;;;5.30;;
36747;SDS011;22716;51.556;5.080;2022-07-25T00:49:45;6.22;;;5.43;;
36747;SDS011;22716;51.556;5.080;2022-07-25T00:52:14;7.90;;;5.78;;
36747;SDS011;22716;51.556;5.080;2022-07-25T00:54:43;6.88;;;5.95;;
36747;SDS011;22716;51.556;5.080;2022-07-25T00:57:12;7.82;;;5.50;;
36747;SDS011;22716;51.556;5.080;2022-07-25T00:59:40;7.75;;;6.25;;
36747;SDS011;22716;51.556;5.080;2022-07-25T01:02:12;9.18;;;4.90;;
36747;SDS011;22716;51.556;5.080;2022-07-25T01:04:41;6.65;;;4.75;;
36747;SDS011;22716;51.556;5.080;2022-07-25T01:07:10;6.93;;;5.45;;
36747;SDS011;22716;51.556;5.080;2022-07-25T01:09:40;6.45;;;5.63;;
36747;SDS011;22716;51.556;5.080;2022-07-25T01:12:08;8.88;;;5.32;;
36747;SDS011;22716;51.556;5.080;2022-07-25T01:14:38;7.47;;;5.75;;
36747;SDS011;22716;51.556;5.080;2022-07-25T01:17:30;7.85;;;5.75;;
36747;SDS011;22716;51.556;5.080;2022-07-25T01:19:59;6.82;;;5.47;;
36747;SDS011;22716;51.556;5.080;2022-07-25T01:22:30;8.15;;;6.00;;
36747;SDS011;22716;51.556;5.080;2022-07-25T01:24:59;9.95;;;5.82;;
36747;SDS011;22716;51.556;5.080;2022-07-25T01:27:30;11.13;;;5.97;;
36747;SDS011;22716;51.556;5.080;2022-07-25T01:30:00;6.88;;;5.40;;
36747;SDS011;22716;51.556;5.080;2022-07-25T01:32:32;6.28;;;5.53;;
36747;SDS011;22716;51.556;5.080;2022-07-25T01:35:04;8.10;;;5.35;;
36747;SDS011;22716;51.556;5.080;2022-07-25T01:37:38;9.32;;;5.38;;
36747;SDS011;22716;51.556;5.080;2022-07-25T01:40:07;9.15;;;5.72;;
36747;SDS011;22716;51.556;5.080;2022-07-25T01:42:37;7.28;;;5.35;;
36747;SDS011;22716;51.556;5.080;2022-07-25T01:45:06;7.68;;;5.38;;
36747;SDS011;22716;51.556;5.080;2022-07-25T01:47:37;9.52;;;5.10;;
36747;SDS011;22716;51.556;5.080;2022-07-25T01:50:07;6.13;;;4.75;;
36747;SDS011;22716;51.556;5.080;2022-07-25T01:52:40;6.35;;;5.47;;
36747;SDS011;22716;51.556;5.080;2022-07-25T01:55:09;7.90;;;5.13;;
36747;SDS011;22716;51.556;5.080;2022-07-25T01:57:38;10.13;;;5.55;;
36747;SDS011;22716;51.556;5.080;2022-07-25T02:00:09;8.67;;;5.00;;
36747;SDS011;22716;51.556;5.080;2022-07-25T02:02:41;6.07;;;5.35;;
36747;SDS011;22716;51.556;5.080;2022-07-25T02:05:12;6.15;;;4.78;;
36747;SDS011;22716;51.556;5.080;2022-07-25T02:07:45;6.63;;;4.68;;
36747;SDS011;22716;51.556;5.080;2022-07-25T02:10:14;5.03;;;4.13;;
36747;SDS011;22716;51.556;5.080;2022-07-25T02:12:43;7.32;;;4.78;;
36747;SDS011;22716;51.556;5.080;2022-07-25T02:15:12;4.93;;;4.40;;
36747;SDS011;22716;51.556;5.080;2022-07-25T02:17:41;5.68;;;4.15;;
36747;SDS011;22716;51.556;5.080;2022-07-25T02:20:12;8.27;;;4.20;;
36747;SDS011;22716;51.556;5.080;2022-07-25T02:22:41;8.77;;;4.20;;
36747;SDS011;22716;51.556;5.080;2022-07-25T02:25:13;7.57;;;4.93;;
36747;SDS011;22716;51.556;5.080;2022-07-25T02:27:42;5.22;;;4.50;;
36747;SDS011;22716;51.556;5.080;2022-07-25T02:30:11;7.13;;;4.87;;
36747;SDS011;22716;51.556;5.080;2022-07-25T02:32:42;8.27;;;4.82;;
36747;SDS011;22716;51.556;5.080;2022-07-25T02:35:11;5.82;;;4.55;;
36747;SDS011;22716;51.556;5.080;2022-07-25T02:37:40;6.82;;;4.75;;
36747;SDS011;22716;51.556;5.080;2022-07-25T02:40:10;8.05;;;4.85;;
36747;SDS011;22716;51.556;5.080;2022-07-25T02:42:43;7.10;;;5.25;;
36747;SDS011;22716;51.556;5.080;2022-07-25T02:45:11;6.33;;;5.40;;
36747;SDS011;22716;51.556;5.080;2022-07-25T02:47:41;5.70;;;4.60;;
36747;SDS011;22716;51.556;5.080;2022-07-25T02:50:10;7.95;;;4.95;;
36747;SDS011;22716;51.556;5.080;2022-07-25T02:52:39;6.50;;;5.10;;
36747;SDS011;22716;51.556;5.080;2022-07-25T02:55:08;6.55;;;5.32;;
36747;SDS011;22716;51.556;5.080;2022-07-25T02:58:00;7.70;;;5.45;;
36747;SDS011;22716;51.556;5.080;2022-07-25T03:00:31;6.40;;;5.00;;
36747;SDS011;22716;51.556;5.080;2022-07-25T03:03:01;8.05;;;5.38;;
36747;SDS011;22716;51.556;5.080;2022-07-25T03:05:30;7.53;;;5.15;;
36747;SDS011;22716;51.556;5.080;2022-07-25T03:07:59;10.75;;;5.38;;
36747;SDS011;22716;51.556;5.080;2022-07-25T03:10:28;8.13;;;5.15;;
36747;SDS011;22716;51.556;5.080;2022-07-25T03:13:01;9.48;;;4.95;;
36747;SDS011;22716;51.556;5.080;2022-07-25T03:15:32;6.07;;;4.18;;
36747;SDS011;22716;51.556;5.080;2022-07-25T03:18:01;8.13;;;4.63;;
36747;SDS011;22716;51.556;5.080;2022-07-25T03:20:32;7.57;;;5.03;;
36747;SDS011;22716;51.556;5.080;2022-07-25T03:23:01;7.78;;;5.03;;
36747;SDS011;22716;51.556;5.080;2022-07-25T03:25:33;14.48;;;5.72;;
36747;SDS011;22716;51.556;5.080;2022-07-25T03:28:01;5.75;;;5.00;;
36747;SDS011;22716;51.556;5.080;2022-07-25T03:30:30;6.65;;;4.15;;
36747;SDS011;22716;51.556;5.080;2022-07-25T03:32:59;5.65;;;4.57;;
36747;SDS011;22716;51.556;5.080;2022-07-25T03:35:29;7.40;;;5.15;;
36747;SDS011;22716;51.556;5.080;2022-07-25T03:37:58;11.32;;;5.93;;
36747;SDS011;22716;51.556;5.080;2022-07-25T03:40:28;6.80;;;4.97;;
36747;SDS011;22716;51.556;5.080;2022-07-25T03:43:00;8.50;;;5.15;;
36747;SDS011;22716;51.556;5.080;2022-07-25T03:45:29;11.30;;;6.00;;
36747;SDS011;22716;51.556;5.080;2022-07-25T03:47:59;11.88;;;5.78;;
36747;SDS011;22716;51.556;5.080;2022-07-25T03:50:30;9.68;;;5.43;;
36747;SDS011;22716;51.556;5.080;2022-07-25T03:52:59;6.38;;;5.50;;
36747;SDS011;22716;51.556;5.080;2022-07-25T03:55:28;6.80;;;4.95;;
36747;SDS011;22716;51.556;5.080;2022-07-25T03:57:57;8.65;;;5.35;;
36747;SDS011;22716;51.556;5.080;2022-07-25T04:00:29;7.88;;;5.32;;
36747;SDS011;22716;51.556;5.080;2022-07-25T04:02:58;8.05;;;5.13;;
36747;SDS011;22716;51.556;5.080;2022-07-25T04:05:27;9.40;;;5.38;;
36747;SDS011;22716;51.556;5.080;2022-07-25T04:07:56;9.48;;;5.43;;
36747;SDS011;22716;51.556;5.080;2022-07-25T04:10:25;7.95;;;5.53;;
36747;SDS011;22716;51.556;5.080;2022-07-25T04:12:54;10.18;;;6.15;;
36747;SDS011;22716;51.556;5.080;2022-07-25T04:15:23;7.68;;;5.15;;
36747;SDS011;22716;51.556;5.080;2022-07-25T04:17:55;6.70;;;4.72;;
36747;SDS011;22716;51.556;5.080;2022-07-25T04:20:26;8.53;;;5.83;;
36747;SDS011;22716;51.556;5.080;2022-07-25T04:22:57;8.13;;;5.15;;
36747;SDS011;22716;51.556;5.080;2022-07-25T04:25:26;7.30;;;5.78;;
36747;SDS011;22716;51.556;5.080;2022-07-25T04:27:55;8.98;;;5.60;;
36747;SDS011;22716;51.556;5.080;2022-07-25T04:30:24;14.60;;;6.10;;
36747;SDS011;22716;51.556;5.080;2022-07-25T04:32:56;10.27;;;5.13;;
36747;SDS011;22716;51.556;5.080;2022-07-25T04:35:26;8.32;;;5.18;;
36747;SDS011;22716;51.556;5.080;2022-07-25T04:37:55;10.32;;;5.45;;
36747;SDS011;22716;51.556;5.080;2022-07-25T04:40:24;6.10;;;5.18;;
36747;SDS011;22716;51.556;5.080;2022-07-25T04:42:53;10.45;;;5.55;;
36747;SDS011;22716;51.556;5.080;2022-07-25T04:45:22;12.23;;;5.82;;
36747;SDS011;22716;51.556;5.080;2022-07-25T04:47:52;7.05;;;5.03;;
36747;SDS011;22716;51.556;5.080;2022-07-25T04:50:25;6.90;;;5.43;;
36747;SDS011;22716;51.556;5.080;2022-07-25T04:52:55;7.10;;;5.05;;
36747;SDS011;22716;51.556;5.080;2022-07-25T04:55:25;7.40;;;5.10;;
36747;SDS011;22716;51.556;5.080;2022-07-25T04:57:53;9.48;;;6.22;;
36747;SDS011;22716;51.556;5.080;2022-07-25T05:00:22;10.60;;;6.05;;
36747;SDS011;22716;51.556;5.080;2022-07-25T05:02:51;8.63;;;5.45;;
36747;SDS011;22716;51.556;5.080;2022-07-25T05:05:24;10.10;;;6.32;;
36747;SDS011;22716;51.556;5.080;2022-07-25T05:07:54;8.05;;;6.32;;
36747;SDS011;22716;51.556;5.080;2022-07-25T05:10:24;11.95;;;9.30;;
36747;SDS011;22716;51.556;5.080;2022-07-25T05:12:56;14.40;;;11.13;;
36747;SDS011;22716;51.556;5.080;2022-07-25T05:15:24;10.23;;;7.18;;
36747;SDS011;22716;51.556;5.080;2022-07-25T05:17:59;10.70;;;6.47;;
36747;SDS011;22716;51.556;5.080;2022-07-25T05:20:30;8.23;;;6.30;;
36747;SDS011;22716;51.556;5.080;2022-07-25T05:22:59;10.10;;;6.95;;
36747;SDS011;22716;51.556;5.080;2022-07-25T05:25:27;14.90;;;6.80;;
36747;SDS011;22716;51.556;5.080;2022-07-25T05:27:56;13.35;;;9.52;;
36747;SDS011;22716;51.556;5.080;2022-07-25T05:30:27;13.20;;;6.82;;
36747;SDS011;22716;51.556;5.080;2022-07-25T05:32:56;9.00;;;6.10;;
36747;SDS011;22716;51.556;5.080;2022-07-25T05:35:25;6.40;;;5.65;;
36747;SDS011;22716;51.556;5.080;2022-07-25T05:37:57;12.93;;;8.55;;
36747;SDS011;22716;51.556;5.080;2022-07-25T05:40:26;7.37;;;6.40;;
36747;SDS011;22716;51.556;5.080;2022-07-25T05:42:54;7.68;;;5.75;;
36747;SDS011;22716;51.556;5.080;2022-07-25T05:45:24;7.88;;;5.55;;
36747;SDS011;22716;51.556;5.080;2022-07-25T05:47:52;9.90;;;6.00;;
36747;SDS011;22716;51.556;5.080;2022-07-25T05:50:22;10.13;;;5.55;;
36747;SDS011;22716;51.556;5.080;2022-07-25T05:52:51;7.07;;;5.45;;
36747;SDS011;22716;51.556;5.080;2022-07-25T05:55:23;7.10;;;4.82;;
36747;SDS011;22716;51.556;5.080;2022-07-25T05:57:53;5.35;;;4.68;;
36747;SDS011;22716;51.556;5.080;2022-07-25T06:00:22;6.55;;;4.00;;
36747;SDS011;22716;51.556;5.080;2022-07-25T06:02:51;8.25;;;4.03;;
36747;SDS011;22716;51.556;5.080;2022-07-25T06:05:21;5.20;;;3.40;;
36747;SDS011;22716;51.556;5.080;2022-07-25T06:07:50;7.10;;;3.85;;
36747;SDS011;22716;51.556;5.080;2022-07-25T06:10:19;6.43;;;3.92;;
36747;SDS011;22716;51.556;5.080;2022-07-25T06:12:51;6.93;;;3.00;;
36747;SDS011;22716;51.556;5.080;2022-07-25T06:15:20;4.67;;;2.83;;
36747;SDS011;22716;51.556;5.080;2022-07-25T06:17:49;4.28;;;3.10;;
36747;SDS011;22716;51.556;5.080;2022-07-25T06:20:17;6.28;;;3.85;;
36747;SDS011;22716;51.556;5.080;2022-07-25T06:22:46;7.13;;;3.20;;
36747;SDS011;22716;51.556;5.080;2022-07-25T06:25:15;3.78;;;2.80;;
36747;SDS011;22716;51.556;5.080;2022-07-25T06:27:47;3.88;;;3.17;;
36747;SDS011;22716;51.556;5.080;2022-07-25T06:30:16;8.23;;;4.10;;
36747;SDS011;22716;51.556;5.080;2022-07-25T06:32:46;5.13;;;2.90;;
36747;SDS011;22716;51.556;5.080;2022-07-25T06:35:15;6.90;;;2.72;;
36747;SDS011;22716;51.556;5.080;2022-07-25T06:37:44;5.15;;;2.40;;
36747;SDS011;22716;51.556;5.080;2022-07-25T06:40:14;5.75;;;2.35;;
36747;SDS011;22716;51.556;5.080;2022-07-25T06:42:43;4.80;;;2.38;;
36747;SDS011;22716;51.556;5.080;2022-07-25T06:45:16;6.53;;;2.83;;
36747;SDS011;22716;51.556;5.080;2022-07-25T06:47:44;5.15;;;2.65;;
36747;SDS011;22716;51.556;5.080;2022-07-25T06:50:14;3.80;;;2.10;;
36747;SDS011;22716;51.556;5.080;2022-07-25T06:52:45;5.22;;;2.00;;
36747;SDS011;22716;51.556;5.080;2022-07-25T06:55:15;5.45;;;2.58;;
36747;SDS011;22716;51.556;5.080;2022-07-25T06:57:47;4.55;;;1.83;;
36747;SDS011;22716;51.556;5.080;2022-07-25T07:00:16;7.73;;;2.37;;
36747;SDS011;22716;51.556;5.080;2022-07-25T07:02:48;3.25;;;2.40;;
36747;SDS011;22716;51.556;5.080;2022-07-25T07:05:20;4.97;;;2.03;;
36747;SDS011;22716;51.556;5.080;2022-07-25T07:07:50;8.25;;;1.38;;
36747;SDS011;22716;51.556;5.080;2022-07-25T07:10:20;4.35;;;1.75;;
36747;SDS011;22716;51.556;5.080;2022-07-25T07:13:00;5.15;;;1.85;;
36747;SDS011;22716;51.556;5.080;2022-07-25T07:15:32;4.30;;;1.27;;
36747;SDS011;22716;51.556;5.080;2022-07-25T07:18:02;4.18;;;1.63;;
36747;SDS011;22716;51.556;5.080;2022-07-25T07:20:31;6.35;;;2.33;;
36747;SDS011;22716;51.556;5.080;2022-07-25T07:23:01;6.47;;;1.75;;
36747;SDS011;22716;51.556;5.080;2022-07-25T07:25:30;5.00;;;1.85;;
36747;SDS011;22716;51.556;5.080;2022-07-25T07:28:03;7.72;;;1.65;;
36747;SDS011;22716;51.556;5.080;2022-07-25T07:30:33;6.88;;;2.20;;
36747;SDS011;22716;51.556;5.080;2022-07-25T07:33:03;5.63;;;1.25;;
36747;SDS011;22716;51.556;5.080;2022-07-25T07:35:32;3.15;;;1.17;;
36747;SDS011;22716;51.556;5.080;2022-07-25T07:38:01;7.25;;;1.38;;
36747;SDS011;22716;51.556;5.080;2022-07-25T07:40:30;3.00;;;1.20;;
36747;SDS011;22716;51.556;5.080;2022-07-25T07:43:02;7.80;;;2.05;;
36747;SDS011;22716;51.556;5.080;2022-07-25T07:45:31;2.83;;;1.40;;
36747;SDS011;22716;51.556;5.080;2022-07-25T07:48:00;3.92;;;1.42;;
36747;SDS011;22716;51.556;5.080;2022-07-25T07:50:29;4.30;;;1.48;;
36747;SDS011;22716;51.556;5.080;2022-07-25T07:52:59;5.53;;;1.77;;
36747;SDS011;22716;51.556;5.080;2022-07-25T07:55:28;6.88;;;1.75;;
36747;SDS011;22716;51.556;5.080;2022-07-25T07:58:14;5.28;;;2.30;;
36747;SDS011;22716;51.556;5.080;2022-07-25T08:00:46;5.88;;;1.17;;
36747;SDS011;22716;51.556;5.080;2022-07-25T08:03:19;9.77;;;1.52;;
36747;SDS011;22716;51.556;5.080;2022-07-25T08:05:48;4.32;;;1.30;;
36747;SDS011;22716;51.556;5.080;2022-07-25T08:08:18;2.63;;;1.17;;
36747;SDS011;22716;51.556;5.080;2022-07-25T08:10:49;4.90;;;1.35;;
36747;SDS011;22716;51.556;5.080;2022-07-25T08:13:24;9.05;;;1.63;;
36747;SDS011;22716;51.556;5.080;2022-07-25T08:15:55;4.93;;;1.65;;
36747;SDS011;22716;51.556;5.080;2022-07-25T08:18:27;4.22;;;1.42;;
36747;SDS011;22716;51.556;5.080;2022-07-25T08:20:58;6.25;;;2.45;;
36747;SDS011;22716;51.556;5.080;2022-07-25T08:23:31;4.03;;;1.40;;
36747;SDS011;22716;51.556;5.080;2022-07-25T08:26:04;8.47;;;1.70;;
36747;SDS011;22716;51.556;5.080;2022-07-25T08:28:35;8.05;;;1.60;;
36747;SDS011;22716;51.556;5.080;2022-07-25T08:31:05;5.60;;;1.77;;
36747;SDS011;22716;51.556;5.080;2022-07-25T08:33:35;5.10;;;1.67;;
36747;SDS011;22716;51.556;5.080;2022-07-25T08:36:04;4.45;;;1.20;;
36747;SDS011;22716;51.556;5.080;2022-07-25T08:38:35;6.63;;;1.48;;
36747;SDS011;22716;51.556;5.080;2022-07-25T08:41:05;3.40;;;1.45;;
36747;SDS011;22716;51.556;5.080;2022-07-25T08:43:38;2.55;;;1.40;;
36747;SDS011;22716;51.556;5.080;2022-07-25T08:46:08;7.05;;;1.30;;
36747;SDS011;22716;51.556;5.080;2022-07-25T08:48:38;3.20;;;1.23;;
36747;SDS011;22716;51.556;5.080;2022-07-25T08:51:08;5.07;;;1.35;;
36747;SDS011;22716;51.556;5.080;2022-07-25T08:53:39;7.45;;;2.30;;
36747;SDS011;22716;51.556;5.080;2022-07-25T08:56:09;5.03;;;1.73;;
36747;SDS011;22716;51.556;5.080;2022-07-25T08:58:41;8.73;;;1.80;;
36747;SDS011;22716;51.556;5.080;2022-07-25T09:01:10;7.75;;;1.98;;
36747;SDS011;22716;51.556;5.080;2022-07-25T09:03:57;5.85;;;2.00;;
36747;SDS011;22716;51.556;5.080;2022-07-25T09:06:27;6.57;;;1.92;;
36747;SDS011;22716;51.556;5.080;2022-07-25T09:08:57;9.05;;;2.38;;
36747;SDS011;22716;51.556;5.080;2022-07-25T09:11:29;6.85;;;2.13;;
36747;SDS011;22716;51.556;5.080;2022-07-25T09:14:04;7.22;;;2.33;;
36747;SDS011;22716;51.556;5.080;2022-07-25T09:16:39;3.35;;;2.10;;
36747;SDS011;22716;51.556;5.080;2022-07-25T09:19:13;9.40;;;1.67;;
36747;SDS011;22716;51.556;5.080;2022-07-25T09:21:44;9.25;;;2.42;;
36747;SDS011;22716;51.556;5.080;2022-07-25T09:24:26;4.18;;;1.92;;
36747;SDS011;22716;51.556;5.080;2022-07-25T09:26:58;6.93;;;1.95;;
36747;SDS011;22716;51.556;5.080;2022-07-25T09:29:33;6.65;;;1.83;;
36747;SDS011;22716;51.556;5.080;2022-07-25T09:32:12;4.57;;;1.80;;
36747;SDS011;22716;51.556;5.080;2022-07-25T09:34:44;4.22;;;1.77;;
36747;SDS011;22716;51.556;5.080;2022-07-25T09:37:15;5.20;;;1.63;;
36747;SDS011;22716;51.556;5.080;2022-07-25T09:39:46;5.32;;;1.40;;
36747;SDS011;22716;51.556;5.080;2022-07-25T09:42:20;6.47;;;1.38;;
36747;SDS011;22716;51.556;5.080;2022-07-25T09:45:02;4.10;;;1.60;;
36747;SDS011;22716;51.556;5.080;2022-07-25T09:47:51;3.83;;;1.33;;
36747;SDS011;22716;51.556;5.080;2022-07-25T09:50:22;5.53;;;2.08;;
36747;SDS011;22716;51.556;5.080;2022-07-25T09:52:55;6.43;;;1.87;;
36747;SDS011;22716;51.556;5.080;2022-07-25T09:55:27;3.03;;;1.60;;
36747;SDS011;22716;51.556;5.080;2022-07-25T09:57:58;4.05;;;1.58;;
36747;SDS011;22716;51.556;5.080;2022-07-25T10:00:31;3.38;;;1.15;;
36747;SDS011;22716;51.556;5.080;2022-07-25T10:03:16;2.55;;;1.60;;
36747;SDS011;22716;51.556;5.080;2022-07-25T10:06:02;5.47;;;2.20;;
36747;SDS011;22716;51.556;5.080;2022-07-25T10:08:41;6.18;;;2.17;;
36747;SDS011;22716;51.556;5.080;2022-07-25T10:11:18;4.72;;;2.05;;
36747;SDS011;22716;51.556;5.080;2022-07-25T10:13:49;6.95;;;2.22;;
36747;SDS011;22716;51.556;5.080;2022-07-25T10:16:23;10.73;;;1.85;;
36747;SDS011;22716;51.556;5.080;2022-07-25T10:18:55;5.20;;;1.70;;
36747;SDS011;22716;51.556;5.080;2022-07-25T10:21:26;8.27;;;2.10;;
36747;SDS011;22716;51.556;5.080;2022-07-25T10:23:56;6.57;;;2.17;;
36747;SDS011;22716;51.556;5.080;2022-07-25T10:26:27;6.28;;;1.83;;
36747;SDS011;22716;51.556;5.080;2022-07-25T10:28:56;5.80;;;2.58;;
36747;SDS011;22716;51.556;5.080;2022-07-25T10:31:35;3.28;;;1.80;;
36747;SDS011;22716;51.556;5.080;2022-07-25T10:34:07;3.65;;;2.17;;
36747;SDS011;22716;51.556;5.080;2022-07-25T10:36:42;4.95;;;2.10;;
36747;SDS011;22716;51.556;5.080;2022-07-25T10:39:13;8.85;;;2.13;;
36747;SDS011;22716;51.556;5.080;2022-07-25T10:41:48;3.63;;;1.98;;
36747;SDS011;22716;51.556;5.080;2022-07-25T10:44:20;5.45;;;2.00;;
36747;SDS011;22716;51.556;5.080;2022-07-25T10:47:03;5.07;;;2.30;;
36747;SDS011;22716;51.556;5.080;2022-07-25T10:49:34;5.43;;;2.67;;
36747;SDS011;22716;51.556;5.080;2022-07-25T10:52:06;4.50;;;1.75;;
36747;SDS011;22716;51.556;5.080;2022-07-25T10:54:51;6.22;;;2.38;;
36747;SDS011;22716;51.556;5.080;2022-07-25T10:57:22;3.13;;;2.15;;
36747;SDS011;22716;51.556;5.080;2022-07-25T10:59:51;5.88;;;2.20;;
36747;SDS011;22716;51.556;5.080;2022-07-25T11:02:24;6.93;;;3.30;;
36747;SDS011;22716;51.556;5.080;2022-07-25T11:04:56;6.40;;;2.92;;
36747;SDS011;22716;51.556;5.080;2022-07-25T11:07:27;3.83;;;1.80;;
36747;SDS011;22716;51.556;5.080;2022-07-25T11:10:03;8.60;;;3.05;;
36747;SDS011;22716;51.556;5.080;2022-07-25T11:12:34;6.97;;;2.90;;
36747;SDS011;22716;51.556;5.080;2022-07-25T11:15:05;4.50;;;2.13;;
36747;SDS011;22716;51.556;5.080;2022-07-25T11:17:48;6.18;;;2.72;;
36747;SDS011;22716;51.556;5.080;2022-07-25T11:20:20;5.13;;;2.60;;
36747;SDS011;22716;51.556;5.080;2022-07-25T11:22:50;7.45;;;2.17;;
36747;SDS011;22716;51.556;5.080;2022-07-25T11:25:21;10.65;;;2.97;;
36747;SDS011;22716;51.556;5.080;2022-07-25T11:27:54;4.80;;;2.20;;
36747;SDS011;22716;51.556;5.080;2022-07-25T11:30:25;4.43;;;2.03;;
36747;SDS011;22716;51.556;5.080;2022-07-25T11:32:58;5.80;;;1.80;;
36747;SDS011;22716;51.556;5.080;2022-07-25T11:35:29;6.82;;;3.13;;
36747;SDS011;22716;51.556;5.080;2022-07-25T11:38:00;8.15;;;2.70;;
36747;SDS011;22716;51.556;5.080;2022-07-25T11:40:31;5.85;;;2.45;;
36747;SDS011;22716;51.556;5.080;2022-07-25T11:43:00;3.35;;;1.90;;
36747;SDS011;22716;51.556;5.080;2022-07-25T11:45:30;7.18;;;2.60;;
36747;SDS011;22716;51.556;5.080;2022-07-25T11:48:10;6.07;;;2.75;;
36747;SDS011;22716;51.556;5.080;2022-07-25T11:50:41;6.90;;;2.33;;
36747;SDS011;22716;51.556;5.080;2022-07-25T11:53:12;8.40;;;2.45;;
36747;SDS011;22716;51.556;5.080;2022-07-25T11:55:44;4.70;;;2.40;;
36747;SDS011;22716;51.556;5.080;2022-07-25T11:58:13;8.88;;;2.33;;
36747;SDS011;22716;51.556;5.080;2022-07-25T12:00:46;6.47;;;2.33;;
36747;SDS011;22716;51.556;5.080;2022-07-25T12:03:19;9.20;;;2.72;;
36747;SDS011;22716;51.556;5.080;2022-07-25T12:05:48;8.43;;;3.13;;
36747;SDS011;22716;51.556;5.080;2022-07-25T12:08:19;5.22;;;2.97;;
36747;SDS011;22716;51.556;5.080;2022-07-25T12:10:49;3.83;;;2.25;;
36747;SDS011;22716;51.556;5.080;2022-07-25T12:13:20;4.80;;;1.90;;
36747;SDS011;22716;51.556;5.080;2022-07-25T12:15:52;8.57;;;3.20;;
36747;SDS011;22716;51.556;5.080;2022-07-25T12:18:26;4.15;;;2.17;;
36747;SDS011;22716;51.556;5.080;2022-07-25T12:20:55;4.22;;;2.15;;
36747;SDS011;22716;51.556;5.080;2022-07-25T12:23:25;5.15;;;2.15;;
36747;SDS011;22716;51.556;5.080;2022-07-25T12:25:54;7.55;;;3.10;;
36747;SDS011;22716;51.556;5.080;2022-07-25T12:28:23;7.28;;;3.03;;
36747;SDS011;22716;51.556;5.080;2022-07-25T12:30:52;5.38;;;2.80;;
36747;SDS011;22716;51.556;5.080;2022-07-25T12:33:21;7.03;;;3.65;;
36747;SDS011;22716;51.556;5.080;2022-07-25T12:35:53;5.63;;;3.13;;
36747;SDS011;22716;51.556;5.080;2022-07-25T12:38:22;8.25;;;3.92;;
36747;SDS011;22716;51.556;5.080;2022-07-25T12:40:51;6.43;;;2.97;;
36747;SDS011;22716;51.556;5.080;2022-07-25T12:43:21;8.73;;;3.50;;
36747;SDS011;22716;51.556;5.080;2022-07-25T12:45:50;7.38;;;4.35;;
36747;SDS011;22716;51.556;5.080;2022-07-25T12:48:19;7.13;;;3.10;;
36747;SDS011;22716;51.556;5.080;2022-07-25T12:50:48;6.43;;;3.45;;
36747;SDS011;22716;51.556;5.080;2022-07-25T12:53:19;8.57;;;2.88;;
36747;SDS011;22716;51.556;5.080;2022-07-25T12:55:49;4.82;;;2.65;;
36747;SDS011;22716;51.556;5.080;2022-07-25T12:58:18;8.45;;;4.07;;
36747;SDS011;22716;51.556;5.080;2022-07-25T13:00:47;11.88;;;6.05;;
36747;SDS011;22716;51.556;5.080;2022-07-25T13:03:16;5.00;;;2.10;;
36747;SDS011;22716;51.556;5.080;2022-07-25T13:05:45;8.20;;;2.20;;
36747;SDS011;22716;51.556;5.080;2022-07-25T13:08:14;8.35;;;3.60;;
36747;SDS011;22716;51.556;5.080;2022-07-25T13:10:46;4.35;;;1.98;;
36747;SDS011;22716;51.556;5.080;2022-07-25T13:13:34;6.93;;;2.30;;
36747;SDS011;22716;51.556;5.080;2022-07-25T13:16:03;5.78;;;2.28;;
36747;SDS011;22716;51.556;5.080;2022-07-25T13:18:32;5.70;;;2.08;;
36747;SDS011;22716;51.556;5.080;2022-07-25T13:21:02;4.72;;;2.03;;
36747;SDS011;22716;51.556;5.080;2022-07-25T13:23:31;6.93;;;2.25;;
36747;SDS011;22716;51.556;5.080;2022-07-25T13:26:03;4.22;;;2.10;;
36747;SDS011;22716;51.556;5.080;2022-07-25T13:28:34;6.43;;;2.28;;
36747;SDS011;22716;51.556;5.080;2022-07-25T13:31:03;6.53;;;2.15;;
36747;SDS011;22716;51.556;5.080;2022-07-25T13:33:32;5.60;;;1.70;;
36747;SDS011;22716;51.556;5.080;2022-07-25T13:36:02;7.22;;;2.30;;
36747;SDS011;22716;51.556;5.080;2022-07-25T13:38:32;7.47;;;2.15;;
36747;SDS011;22716;51.556;5.080;2022-07-25T13:41:05;7.63;;;2.60;;
36747;SDS011;22716;51.556;5.080;2022-07-25T13:43:34;7.38;;;2.60;;
36747;SDS011;22716;51.556;5.080;2022-07-25T13:46:05;9.73;;;2.20;;
36747;SDS011;22716;51.556;5.080;2022-07-25T13:48:34;8.13;;;2.70;;
36747;SDS011;22716;51.556;5.080;2022-07-25T13:51:03;5.72;;;1.83;;
36747;SDS011;22716;51.556;5.080;2022-07-25T13:53:32;5.30;;;1.70;;
36747;SDS011;22716;51.556;5.080;2022-07-25T13:56:01;5.85;;;1.92;;
36747;SDS011;22716;51.556;5.080;2022-07-25T13:58:34;9.82;;;2.85;;
36747;SDS011;22716;51.556;5.080;2022-07-25T14:01:03;8.20;;;2.40;;
36747;SDS011;22716;51.556;5.080;2022-07-25T14:03:31;6.43;;;1.83;;
36747;SDS011;22716;51.556;5.080;2022-07-25T14:06:02;7.00;;;2.15;;
36747;SDS011;22716;51.556;5.080;2022-07-25T14:08:32;16.77;;;3.35;;
36747;SDS011;22716;51.556;5.080;2022-07-25T14:11:01;6.07;;;2.85;;
36747;SDS011;22716;51.556;5.080;2022-07-25T14:13:30;6.13;;;1.88;;
36747;SDS011;22716;51.556;5.080;2022-07-25T14:16:03;5.63;;;1.77;;
36747;SDS011;22716;51.556;5.080;2022-07-25T14:18:32;10.60;;;2.55;;
36747;SDS011;22716;51.556;5.080;2022-07-25T14:21:01;6.05;;;2.05;;
36747;SDS011;22716;51.556;5.080;2022-07-25T14:23:31;6.82;;;1.98;;
36747;SDS011;22716;51.556;5.080;2022-07-25T14:26:01;12.80;;;2.38;;
36747;SDS011;22716;51.556;5.080;2022-07-25T14:28:30;6.53;;;2.20;;
36747;SDS011;22716;51.556;5.080;2022-07-25T14:31:02;5.68;;;1.90;;
36747;SDS011;22716;51.556;5.080;2022-07-25T14:33:31;9.30;;;2.67;;
36747;SDS011;22716;51.556;5.080;2022-07-25T14:36:05;7.70;;;1.83;;
36747;SDS011;22716;51.556;5.080;2022-07-25T14:38:34;6.70;;;1.38;;
36747;SDS011;22716;51.556;5.080;2022-07-25T14:41:04;8.88;;;1.85;;
36747;SDS011;22716;51.556;5.080;2022-07-25T14:43:36;6.57;;;2.42;;
36747;SDS011;22716;51.556;5.080;2022-07-25T14:46:05;10.05;;;2.90;;
36747;SDS011;22716;51.556;5.080;2022-07-25T14:48:34;3.78;;;1.50;;
36747;SDS011;22716;51.556;5.080;2022-07-25T14:51:06;5.47;;;1.50;;
36747;SDS011;22716;51.556;5.080;2022-07-25T14:53:36;6.20;;;2.10;;
36747;SDS011;22716;51.556;5.080;2022-07-25T14:56:05;6.57;;;2.00;;
36747;SDS011;22716;51.556;5.080;2022-07-25T14:58:37;10.93;;;1.90;;
36747;SDS011;22716;51.556;5.080;2022-07-25T15:01:06;4.00;;;1.20;;
36747;SDS011;22716;51.556;5.080;2022-07-25T15:03:36;9.18;;;1.75;;
36747;SDS011;22716;51.556;5.080;2022-07-25T15:06:06;6.75;;;1.52;;
36747;SDS011;22716;51.556;5.080;2022-07-25T15:08:36;9.10;;;1.60;;